sensor_id;sensor_type;location;lat;lon;timestamp;temperature;humidity
995;DHT22;486;48.726;8.964;2022-08-16T00:00:39;16.90;99.90
995;DHT22;486;48.726;8.964;2022-08-16T00:03:13;16.80;99.90
995;DHT22;486;48.726;8.964;2022-08-16T00:05:42;16.80;99.90
995;DHT22;486;48.726;8.964;2022-08-16T00:08:12;16.70;99.90
995;DHT22;486;48.726;8.964;2022-08-16T00:10:41;16.60;99.90
995;DHT22;486;48.726;8.964;2022-08-16T00:13:10;16.70;99.90
995;DHT22;486;48.726;8.964;2022-08-16T00:15:42;16.70;99.90
995;DHT22;486;48.726;8.964;2022-08-16T00:18:16;16.80;99.90
995;DHT22;486;48.726;8.964;2022-08-16T00:20:47;16.80;99.90
995;DHT22;486;48.726;8.964;2022-08-16T00:23:16;16.70;99.90
995;DHT22;486;48.726;8.964;2022-08-16T00:25:45;16.70;99.90
995;DHT22;486;48.726;8.964;2022-08-16T00:28:15;16.70;99.90
995;DHT22;486;48.726;8.964;2022-08-16T00:30:44;16.70;99.90
995;DHT22;486;48.726;8.964;2022-08-16T00:33:15;16.70;99.90
995;DHT22;486;48.726;8.964;2022-08-16T00:35:45;16.70;99.90
995;DHT22;486;48.726;8.964;2022-08-16T00:38:13;16.60;99.90
995;DHT22;486;48.726;8.964;2022-08-16T00:40:46;16.60;99.90
995;DHT22;486;48.726;8.964;2022-08-16T00:43:20;16.60;99.90
995;DHT22;486;48.726;8.964;2022-08-16T00:45:56;16.60;99.90
995;DHT22;486;48.726;8.964;2022-08-16T00:48:32;16.60;99.90
995;DHT22;486;48.726;8.964;2022-08-16T00:51:02;16.60;99.90
995;DHT22;486;48.726;8.964;2022-08-16T00:53:33;16.60;99.90
995;DHT22;486;48.726;8.964;2022-08-16T00:56:05;16.60;99.90
995;DHT22;486;48.726;8.964;2022-08-16T00:58:39;16.70;99.90
995;DHT22;486;48.726;8.964;2022-08-16T01:01:11;16.70;99.90
995;DHT22;486;48.726;8.964;2022-08-16T01:03:47;16.70;99.90
995;DHT22;486;48.726;8.964;2022-08-16T01:06:19;16.70;99.90
995;DHT22;486;48.726;8.964;2022-08-16T01:08:50;16.70;99.90
995;DHT22;486;48.726;8.964;2022-08-16T01:11:22;16.70;99.90
995;DHT22;486;48.726;8.964;2022-08-16T01:13:58;16.70;99.90
995;DHT22;486;48.726;8.964;2022-08-16T01:16:31;16.70;99.90
995;DHT22;486;48.726;8.964;2022-08-16T01:19:21;16.80;99.90
995;DHT22;486;48.726;8.964;2022-08-16T01:21:54;16.80;99.90
995;DHT22;486;48.726;8.964;2022-08-16T01:24:32;16.80;99.90
995;DHT22;486;48.726;8.964;2022-08-16T01:27:06;16.90;99.90
995;DHT22;486;48.726;8.964;2022-08-16T01:29:42;17.00;99.90
995;DHT22;486;48.726;8.964;2022-08-16T01:32:13;17.00;99.90
995;DHT22;486;48.726;8.964;2022-08-16T01:34:42;17.00;99.90
995;DHT22;486;48.726;8.964;2022-08-16T01:37:13;17.00;99.90
995;DHT22;486;48.726;8.964;2022-08-16T01:39:46;17.00;99.90
995;DHT22;486;48.726;8.964;2022-08-16T01:42:15;17.00;99.90
995;DHT22;486;48.726;8.964;2022-08-16T01:44:44;17.00;99.90
995;DHT22;486;48.726;8.964;2022-08-16T01:47:13;17.10;99.90
995;DHT22;486;48.726;8.964;2022-08-16T01:49:42;17.10;99.90
995;DHT22;486;48.726;8.964;2022-08-16T01:52:14;17.10;99.90
995;DHT22;486;48.726;8.964;2022-08-16T01:55:05;17.10;99.90
995;DHT22;486;48.726;8.964;2022-08-16T01:57:34;17.00;99.90
995;DHT22;486;48.726;8.964;2022-08-16T02:00:07;17.10;99.90
995;DHT22;486;48.726;8.964;2022-08-16T02:02:39;17.10;99.90
995;DHT22;486;48.726;8.964;2022-08-16T02:05:09;17.10;99.90
995;DHT22;486;48.726;8.964;2022-08-16T02:07:40;17.00;99.90
995;DHT22;486;48.726;8.964;2022-08-16T02:10:13;17.10;99.90
995;DHT22;486;48.726;8.964;2022-08-16T02:12:43;17.10;99.90
995;DHT22;486;48.726;8.964;2022-08-16T02:15:13;17.10;99.90
995;DHT22;486;48.726;8.964;2022-08-16T02:17:43;17.20;99.90
995;DHT22;486;48.726;8.964;2022-08-16T02:20:14;17.20;99.90
995;DHT22;486;48.726;8.964;2022-08-16T02:22:45;17.10;99.90
995;DHT22;486;48.726;8.964;2022-08-16T02:25:16;17.20;99.90
995;DHT22;486;48.726;8.964;2022-08-16T02:27:45;17.10;99.90
995;DHT22;486;48.726;8.964;2022-08-16T02:30:18;17.00;99.90
995;DHT22;486;48.726;8.964;2022-08-16T02:32:48;17.00;99.90
995;DHT22;486;48.726;8.964;2022-08-16T02:35:21;16.90;99.90
995;DHT22;486;48.726;8.964;2022-08-16T02:37:50;16.90;99.90
995;DHT22;486;48.726;8.964;2022-08-16T02:40:25;17.00;99.90
995;DHT22;486;48.726;8.964;2022-08-16T02:42:55;17.00;99.90
995;DHT22;486;48.726;8.964;2022-08-16T02:45:26;16.90;99.90
995;DHT22;486;48.726;8.964;2022-08-16T02:47:56;17.00;99.90
995;DHT22;486;48.726;8.964;2022-08-16T02:50:26;16.90;99.90
995;DHT22;486;48.726;8.964;2022-08-16T02:52:56;16.90;99.90
995;DHT22;486;48.726;8.964;2022-08-16T02:55:27;16.90;99.90
995;DHT22;486;48.726;8.964;2022-08-16T02:57:56;16.80;99.90
995;DHT22;486;48.726;8.964;2022-08-16T03:00:25;16.80;99.90
995;DHT22;486;48.726;8.964;2022-08-16T03:02:56;16.90;99.90
995;DHT22;486;48.726;8.964;2022-08-16T03:05:25;16.90;99.90
995;DHT22;486;48.726;8.964;2022-08-16T03:07:55;16.90;99.90
995;DHT22;486;48.726;8.964;2022-08-16T03:10:27;17.00;99.90
995;DHT22;486;48.726;8.964;2022-08-16T03:12:57;16.90;99.90
995;DHT22;486;48.726;8.964;2022-08-16T03:15:28;16.90;99.90
995;DHT22;486;48.726;8.964;2022-08-16T03:17:59;16.90;99.90
995;DHT22;486;48.726;8.964;2022-08-16T03:20:30;16.90;99.90
995;DHT22;486;48.726;8.964;2022-08-16T03:23:01;16.90;99.90
995;DHT22;486;48.726;8.964;2022-08-16T03:25:34;16.90;99.90
995;DHT22;486;48.726;8.964;2022-08-16T03:28:04;16.80;99.90
995;DHT22;486;48.726;8.964;2022-08-16T03:30:35;16.90;99.90
995;DHT22;486;48.726;8.964;2022-08-16T03:33:06;16.90;99.90
995;DHT22;486;48.726;8.964;2022-08-16T03:35:48;16.90;99.90
995;DHT22;486;48.726;8.964;2022-08-16T03:38:27;16.90;99.90
995;DHT22;486;48.726;8.964;2022-08-16T03:41:02;16.90;99.90
995;DHT22;486;48.726;8.964;2022-08-16T03:43:32;16.90;99.90
995;DHT22;486;48.726;8.964;2022-08-16T03:46:02;16.90;99.90
995;DHT22;486;48.726;8.964;2022-08-16T03:48:36;17.00;99.90
995;DHT22;486;48.726;8.964;2022-08-16T03:51:12;16.90;99.90
995;DHT22;486;48.726;8.964;2022-08-16T03:53:47;16.90;99.90
995;DHT22;486;48.726;8.964;2022-08-16T03:56:19;17.00;99.90
995;DHT22;486;48.726;8.964;2022-08-16T03:58:49;17.00;99.90
995;DHT22;486;48.726;8.964;2022-08-16T04:01:19;17.10;99.90
995;DHT22;486;48.726;8.964;2022-08-16T04:03:50;17.10;99.90
995;DHT22;486;48.726;8.964;2022-08-16T04:06:19;17.10;99.90
995;DHT22;486;48.726;8.964;2022-08-16T04:08:49;17.20;99.90
995;DHT22;486;48.726;8.964;2022-08-16T04:11:21;17.20;99.90
995;DHT22;486;48.726;8.964;2022-08-16T04:13:50;17.20;99.90
995;DHT22;486;48.726;8.964;2022-08-16T04:16:21;17.20;99.90
995;DHT22;486;48.726;8.964;2022-08-16T04:18:51;17.20;99.90
995;DHT22;486;48.726;8.964;2022-08-16T04:21:20;17.20;99.90
995;DHT22;486;48.726;8.964;2022-08-16T04:23:49;17.20;99.90
995;DHT22;486;48.726;8.964;2022-08-16T04:26:20;17.20;99.90
995;DHT22;486;48.726;8.964;2022-08-16T04:28:49;17.30;99.90
995;DHT22;486;48.726;8.964;2022-08-16T04:31:19;17.30;99.90
995;DHT22;486;48.726;8.964;2022-08-16T04:33:48;17.30;99.90
995;DHT22;486;48.726;8.964;2022-08-16T04:36:21;17.40;99.90
995;DHT22;486;48.726;8.964;2022-08-16T04:38:50;17.40;99.90
995;DHT22;486;48.726;8.964;2022-08-16T04:41:22;17.40;99.90
995;DHT22;486;48.726;8.964;2022-08-16T04:43:54;17.40;99.90
995;DHT22;486;48.726;8.964;2022-08-16T04:46:23;17.50;99.90
995;DHT22;486;48.726;8.964;2022-08-16T04:48:52;17.50;99.90
995;DHT22;486;48.726;8.964;2022-08-16T04:51:22;17.60;99.90
995;DHT22;486;48.726;8.964;2022-08-16T04:53:51;17.60;99.90
995;DHT22;486;48.726;8.964;2022-08-16T04:56:22;17.60;99.90
995;DHT22;486;48.726;8.964;2022-08-16T04:58:52;17.70;99.90
995;DHT22;486;48.726;8.964;2022-08-16T05:01:21;17.70;99.90
995;DHT22;486;48.726;8.964;2022-08-16T05:03:50;17.70;99.90
995;DHT22;486;48.726;8.964;2022-08-16T05:06:20;17.80;99.90
995;DHT22;486;48.726;8.964;2022-08-16T05:08:49;17.70;99.90
995;DHT22;486;48.726;8.964;2022-08-16T05:11:25;17.80;99.90
995;DHT22;486;48.726;8.964;2022-08-16T05:13:55;17.90;99.90
995;DHT22;486;48.726;8.964;2022-08-16T05:16:29;17.90;99.90
995;DHT22;486;48.726;8.964;2022-08-16T05:19:05;17.90;99.90
995;DHT22;486;48.726;8.964;2022-08-16T05:21:37;17.90;99.90
995;DHT22;486;48.726;8.964;2022-08-16T05:24:09;17.90;99.90
995;DHT22;486;48.726;8.964;2022-08-16T05:26:41;17.90;99.90
995;DHT22;486;48.726;8.964;2022-08-16T05:29:12;18.00;99.90
995;DHT22;486;48.726;8.964;2022-08-16T05:31:56;18.00;99.90
995;DHT22;486;48.726;8.964;2022-08-16T05:34:26;18.10;99.90
995;DHT22;486;48.726;8.964;2022-08-16T05:36:55;18.10;99.90
995;DHT22;486;48.726;8.964;2022-08-16T05:39:32;18.10;99.90
995;DHT22;486;48.726;8.964;2022-08-16T05:42:05;18.10;99.90
995;DHT22;486;48.726;8.964;2022-08-16T05:44:35;18.10;99.90
995;DHT22;486;48.726;8.964;2022-08-16T05:47:05;18.10;99.90
995;DHT22;486;48.726;8.964;2022-08-16T05:49:35;18.10;99.90
995;DHT22;486;48.726;8.964;2022-08-16T05:52:04;18.10;99.90
995;DHT22;486;48.726;8.964;2022-08-16T05:54:33;18.10;99.90
995;DHT22;486;48.726;8.964;2022-08-16T05:57:05;18.10;99.90
995;DHT22;486;48.726;8.964;2022-08-16T05:59:36;18.10;99.90
995;DHT22;486;48.726;8.964;2022-08-16T06:02:06;18.10;99.90
995;DHT22;486;48.726;8.964;2022-08-16T06:04:36;18.20;99.90
995;DHT22;486;48.726;8.964;2022-08-16T06:07:09;18.20;99.90
995;DHT22;486;48.726;8.964;2022-08-16T06:09:42;18.40;99.90
995;DHT22;486;48.726;8.964;2022-08-16T06:12:16;18.50;99.90
995;DHT22;486;48.726;8.964;2022-08-16T06:14:45;18.60;99.90
995;DHT22;486;48.726;8.964;2022-08-16T06:17:14;18.70;99.90
995;DHT22;486;48.726;8.964;2022-08-16T06:19:44;18.70;99.90
995;DHT22;486;48.726;8.964;2022-08-16T06:22:14;18.80;99.90
995;DHT22;486;48.726;8.964;2022-08-16T06:24:43;18.90;99.90
995;DHT22;486;48.726;8.964;2022-08-16T06:27:12;18.90;99.90
995;DHT22;486;48.726;8.964;2022-08-16T06:29:44;19.10;99.90
995;DHT22;486;48.726;8.964;2022-08-16T06:32:13;19.10;99.90
995;DHT22;486;48.726;8.964;2022-08-16T06:34:42;19.30;99.90
995;DHT22;486;48.726;8.964;2022-08-16T06:37:12;19.40;99.90
995;DHT22;486;48.726;8.964;2022-08-16T06:39:43;19.50;99.90
995;DHT22;486;48.726;8.964;2022-08-16T06:42:21;19.60;99.90
995;DHT22;486;48.726;8.964;2022-08-16T06:45:09;19.80;99.90
995;DHT22;486;48.726;8.964;2022-08-16T06:47:40;19.90;99.90
995;DHT22;486;48.726;8.964;2022-08-16T06:50:10;19.90;99.90
995;DHT22;486;48.726;8.964;2022-08-16T06:52:44;19.90;99.90
995;DHT22;486;48.726;8.964;2022-08-16T06:55:15;19.90;99.90
995;DHT22;486;48.726;8.964;2022-08-16T06:57:52;20.00;99.90
995;DHT22;486;48.726;8.964;2022-08-16T07:00:24;20.10;99.90
995;DHT22;486;48.726;8.964;2022-08-16T07:03:05;20.20;99.90
995;DHT22;486;48.726;8.964;2022-08-16T07:05:35;20.40;99.90
995;DHT22;486;48.726;8.964;2022-08-16T07:08:13;20.60;99.90
995;DHT22;486;48.726;8.964;2022-08-16T07:10:42;20.70;99.90
995;DHT22;486;48.726;8.964;2022-08-16T07:13:12;20.80;99.90
995;DHT22;486;48.726;8.964;2022-08-16T07:15:44;20.90;99.90
995;DHT22;486;48.726;8.964;2022-08-16T07:18:16;20.90;99.90
995;DHT22;486;48.726;8.964;2022-08-16T07:20:46;21.10;99.90
995;DHT22;486;48.726;8.964;2022-08-16T07:23:16;21.40;99.90
995;DHT22;486;48.726;8.964;2022-08-16T07:25:50;21.70;99.90
995;DHT22;486;48.726;8.964;2022-08-16T07:28:20;21.70;99.90
995;DHT22;486;48.726;8.964;2022-08-16T07:30:52;21.60;99.90
995;DHT22;486;48.726;8.964;2022-08-16T07:33:31;21.80;99.90
995;DHT22;486;48.726;8.964;2022-08-16T07:36:03;22.00;99.90
995;DHT22;486;48.726;8.964;2022-08-16T07:38:36;22.20;99.90
995;DHT22;486;48.726;8.964;2022-08-16T07:41:06;22.10;99.90
995;DHT22;486;48.726;8.964;2022-08-16T07:43:38;22.20;99.90
995;DHT22;486;48.726;8.964;2022-08-16T07:46:09;22.20;99.90
995;DHT22;486;48.726;8.964;2022-08-16T07:48:40;22.20;99.90
995;DHT22;486;48.726;8.964;2022-08-16T07:51:09;22.50;99.90
995;DHT22;486;48.726;8.964;2022-08-16T07:53:40;22.60;99.90
995;DHT22;486;48.726;8.964;2022-08-16T07:56:11;22.70;99.90
995;DHT22;486;48.726;8.964;2022-08-16T07:58:42;22.60;99.90
995;DHT22;486;48.726;8.964;2022-08-16T08:01:16;22.50;99.90
995;DHT22;486;48.726;8.964;2022-08-16T08:03:51;22.70;99.90
995;DHT22;486;48.726;8.964;2022-08-16T08:06:27;22.70;99.90
995;DHT22;486;48.726;8.964;2022-08-16T08:09:03;22.80;99.90
995;DHT22;486;48.726;8.964;2022-08-16T08:11:32;22.90;99.90
995;DHT22;486;48.726;8.964;2022-08-16T08:14:05;23.00;99.90
995;DHT22;486;48.726;8.964;2022-08-16T08:16:44;23.20;99.90
995;DHT22;486;48.726;8.964;2022-08-16T08:19:22;23.50;99.90
995;DHT22;486;48.726;8.964;2022-08-16T08:21:52;23.60;99.90
995;DHT22;486;48.726;8.964;2022-08-16T08:24:29;23.60;99.90
995;DHT22;486;48.726;8.964;2022-08-16T08:27:03;23.60;99.90
995;DHT22;486;48.726;8.964;2022-08-16T08:29:35;23.60;99.90
995;DHT22;486;48.726;8.964;2022-08-16T08:32:08;23.50;99.90
995;DHT22;486;48.726;8.964;2022-08-16T08:34:38;23.60;99.90
995;DHT22;486;48.726;8.964;2022-08-16T08:37:07;23.90;99.90
995;DHT22;486;48.726;8.964;2022-08-16T08:39:37;24.20;99.20
995;DHT22;486;48.726;8.964;2022-08-16T08:42:07;24.60;98.50
995;DHT22;486;48.726;8.964;2022-08-16T08:44:37;24.60;98.30
995;DHT22;486;48.726;8.964;2022-08-16T08:47:13;24.70;97.60
995;DHT22;486;48.726;8.964;2022-08-16T08:49:42;24.50;97.30
995;DHT22;486;48.726;8.964;2022-08-16T08:52:12;24.50;97.80
995;DHT22;486;48.726;8.964;2022-08-16T08:54:42;24.60;98.40
995;DHT22;486;48.726;8.964;2022-08-16T08:57:12;24.50;97.40
995;DHT22;486;48.726;8.964;2022-08-16T08:59:53;24.40;97.70
995;DHT22;486;48.726;8.964;2022-08-16T09:02:25;24.60;97.50
995;DHT22;486;48.726;8.964;2022-08-16T09:04:56;24.60;97.10
995;DHT22;486;48.726;8.964;2022-08-16T09:07:25;24.80;97.80
995;DHT22;486;48.726;8.964;2022-08-16T09:09:56;25.00;97.20
995;DHT22;486;48.726;8.964;2022-08-16T09:12:25;25.10;97.10
995;DHT22;486;48.726;8.964;2022-08-16T09:15:00;25.30;95.80
995;DHT22;486;48.726;8.964;2022-08-16T09:17:33;25.40;95.10
995;DHT22;486;48.726;8.964;2022-08-16T09:20:04;25.50;94.50
995;DHT22;486;48.726;8.964;2022-08-16T09:22:35;25.60;94.50
995;DHT22;486;48.726;8.964;2022-08-16T09:25:05;25.70;94.00
995;DHT22;486;48.726;8.964;2022-08-16T09:27:35;25.80;94.20
995;DHT22;486;48.726;8.964;2022-08-16T09:30:05;26.00;93.00
995;DHT22;486;48.726;8.964;2022-08-16T09:32:38;25.80;92.50
995;DHT22;486;48.726;8.964;2022-08-16T09:35:08;25.70;92.60
995;DHT22;486;48.726;8.964;2022-08-16T09:37:37;25.60;92.70
995;DHT22;486;48.726;8.964;2022-08-16T09:40:08;25.80;93.30
995;DHT22;486;48.726;8.964;2022-08-16T09:42:37;26.10;92.40
995;DHT22;486;48.726;8.964;2022-08-16T09:45:08;26.30;92.80
995;DHT22;486;48.726;8.964;2022-08-16T09:47:40;26.60;91.60
995;DHT22;486;48.726;8.964;2022-08-16T09:50:11;26.30;91.00
995;DHT22;486;48.726;8.964;2022-08-16T09:52:41;26.30;90.90
995;DHT22;486;48.726;8.964;2022-08-16T09:55:10;26.00;91.90
995;DHT22;486;48.726;8.964;2022-08-16T09:57:40;25.70;92.60
995;DHT22;486;48.726;8.964;2022-08-16T10:00:11;25.80;92.30
995;DHT22;486;48.726;8.964;2022-08-16T10:02:44;26.20;91.70
995;DHT22;486;48.726;8.964;2022-08-16T10:05:13;26.40;90.60
995;DHT22;486;48.726;8.964;2022-08-16T10:07:44;26.20;91.20
995;DHT22;486;48.726;8.964;2022-08-16T10:10:17;26.30;90.70
995;DHT22;486;48.726;8.964;2022-08-16T10:12:47;25.80;90.80
995;DHT22;486;48.726;8.964;2022-08-16T10:15:30;26.00;91.40
995;DHT22;486;48.726;8.964;2022-08-16T10:18:04;26.40;90.90
995;DHT22;486;48.726;8.964;2022-08-16T10:20:37;26.60;90.10
995;DHT22;486;48.726;8.964;2022-08-16T10:23:09;26.60;90.20
995;DHT22;486;48.726;8.964;2022-08-16T10:25:41;26.90;90.20
995;DHT22;486;48.726;8.964;2022-08-16T10:28:12;27.00;89.80
995;DHT22;486;48.726;8.964;2022-08-16T10:30:42;26.80;88.80
995;DHT22;486;48.726;8.964;2022-08-16T10:33:14;26.80;88.80
995;DHT22;486;48.726;8.964;2022-08-16T10:35:44;26.90;87.30
995;DHT22;486;48.726;8.964;2022-08-16T10:38:14;26.80;88.90
995;DHT22;486;48.726;8.964;2022-08-16T10:40:43;26.70;87.10
995;DHT22;486;48.726;8.964;2022-08-16T10:43:12;26.60;88.20
995;DHT22;486;48.726;8.964;2022-08-16T10:45:41;26.60;87.90
995;DHT22;486;48.726;8.964;2022-08-16T10:48:15;26.90;87.70
995;DHT22;486;48.726;8.964;2022-08-16T10:50:44;27.30;86.60
995;DHT22;486;48.726;8.964;2022-08-16T10:53:14;27.20;86.70
995;DHT22;486;48.726;8.964;2022-08-16T10:55:43;26.90;85.60
995;DHT22;486;48.726;8.964;2022-08-16T10:58:13;27.20;85.70
995;DHT22;486;48.726;8.964;2022-08-16T11:00:44;26.80;86.10
995;DHT22;486;48.726;8.964;2022-08-16T11:03:16;26.90;85.70
995;DHT22;486;48.726;8.964;2022-08-16T11:05:46;27.10;85.80
995;DHT22;486;48.726;8.964;2022-08-16T11:08:15;27.50;85.70
995;DHT22;486;48.726;8.964;2022-08-16T11:10:45;27.50;84.30
995;DHT22;486;48.726;8.964;2022-08-16T11:13:16;27.80;83.60
995;DHT22;486;48.726;8.964;2022-08-16T11:15:47;27.80;84.70
995;DHT22;486;48.726;8.964;2022-08-16T11:18:19;27.30;83.10
995;DHT22;486;48.726;8.964;2022-08-16T11:20:48;27.20;86.60
995;DHT22;486;48.726;8.964;2022-08-16T11:23:17;27.40;84.20
995;DHT22;486;48.726;8.964;2022-08-16T11:25:46;27.30;83.10
995;DHT22;486;48.726;8.964;2022-08-16T11:28:16;27.40;83.10
995;DHT22;486;48.726;8.964;2022-08-16T11:30:45;27.40;83.50
995;DHT22;486;48.726;8.964;2022-08-16T11:33:17;27.50;85.20
995;DHT22;486;48.726;8.964;2022-08-16T11:35:47;27.70;83.90
995;DHT22;486;48.726;8.964;2022-08-16T11:38:18;27.70;82.30
995;DHT22;486;48.726;8.964;2022-08-16T11:40:50;27.50;81.20
995;DHT22;486;48.726;8.964;2022-08-16T11:43:24;27.70;84.20
995;DHT22;486;48.726;8.964;2022-08-16T11:45:56;27.70;83.00
995;DHT22;486;48.726;8.964;2022-08-16T11:48:31;27.70;84.40
995;DHT22;486;48.726;8.964;2022-08-16T11:51:01;27.70;83.60
995;DHT22;486;48.726;8.964;2022-08-16T11:53:31;27.80;81.80
995;DHT22;486;48.726;8.964;2022-08-16T11:56:01;28.10;82.80
995;DHT22;486;48.726;8.964;2022-08-16T11:58:30;28.20;81.60
995;DHT22;486;48.726;8.964;2022-08-16T12:00:59;27.70;79.60
995;DHT22;486;48.726;8.964;2022-08-16T12:03:32;27.70;81.00
995;DHT22;486;48.726;8.964;2022-08-16T12:06:05;27.40;81.00
995;DHT22;486;48.726;8.964;2022-08-16T12:08:36;27.50;80.00
995;DHT22;486;48.726;8.964;2022-08-16T12:11:06;27.60;81.00
995;DHT22;486;48.726;8.964;2022-08-16T12:13:35;27.80;78.70
995;DHT22;486;48.726;8.964;2022-08-16T12:16:05;27.80;78.50
995;DHT22;486;48.726;8.964;2022-08-16T12:18:37;27.80;78.60
995;DHT22;486;48.726;8.964;2022-08-16T12:21:07;28.10;78.60
995;DHT22;486;48.726;8.964;2022-08-16T12:23:36;28.40;77.30
995;DHT22;486;48.726;8.964;2022-08-16T12:26:06;28.40;76.00
995;DHT22;486;48.726;8.964;2022-08-16T12:28:35;28.10;74.80
995;DHT22;486;48.726;8.964;2022-08-16T12:31:04;28.10;75.70
995;DHT22;486;48.726;8.964;2022-08-16T12:33:38;28.20;74.00
995;DHT22;486;48.726;8.964;2022-08-16T12:36:09;28.00;74.80
995;DHT22;486;48.726;8.964;2022-08-16T12:38:38;28.20;76.60
995;DHT22;486;48.726;8.964;2022-08-16T12:41:08;28.10;74.40
995;DHT22;486;48.726;8.964;2022-08-16T12:43:38;28.10;75.20
995;DHT22;486;48.726;8.964;2022-08-16T12:46:09;28.40;76.10
995;DHT22;486;48.726;8.964;2022-08-16T12:48:40;28.70;74.80
995;DHT22;486;48.726;8.964;2022-08-16T12:51:25;28.70;72.90
995;DHT22;486;48.726;8.964;2022-08-16T12:53:59;28.90;74.70
995;DHT22;486;48.726;8.964;2022-08-16T12:56:31;29.20;73.40
995;DHT22;486;48.726;8.964;2022-08-16T12:59:07;29.60;72.20
995;DHT22;486;48.726;8.964;2022-08-16T13:01:38;30.00;71.00
995;DHT22;486;48.726;8.964;2022-08-16T13:04:13;30.20;69.90
995;DHT22;486;48.726;8.964;2022-08-16T13:06:42;29.90;69.90
995;DHT22;486;48.726;8.964;2022-08-16T13:09:13;30.10;67.00
995;DHT22;486;48.726;8.964;2022-08-16T13:11:55;30.30;65.20
995;DHT22;486;48.726;8.964;2022-08-16T13:14:31;30.20;65.90
995;DHT22;486;48.726;8.964;2022-08-16T13:17:05;30.10;65.90
995;DHT22;486;48.726;8.964;2022-08-16T13:19:38;30.10;65.50
995;DHT22;486;48.726;8.964;2022-08-16T13:22:08;30.30;65.80
995;DHT22;486;48.726;8.964;2022-08-16T13:24:37;30.00;67.30
995;DHT22;486;48.726;8.964;2022-08-16T13:27:06;29.70;67.40
995;DHT22;486;48.726;8.964;2022-08-16T13:29:36;29.90;70.00
995;DHT22;486;48.726;8.964;2022-08-16T13:32:05;30.70;67.50
995;DHT22;486;48.726;8.964;2022-08-16T13:34:38;31.40;66.50
995;DHT22;486;48.726;8.964;2022-08-16T13:37:07;32.40;64.40
995;DHT22;486;48.726;8.964;2022-08-16T13:39:36;33.00;59.50
995;DHT22;486;48.726;8.964;2022-08-16T13:42:09;33.60;58.50
995;DHT22;486;48.726;8.964;2022-08-16T13:44:38;34.50;56.90
995;DHT22;486;48.726;8.964;2022-08-16T13:47:07;35.10;53.80
995;DHT22;486;48.726;8.964;2022-08-16T13:49:39;35.70;54.00
995;DHT22;486;48.726;8.964;2022-08-16T13:52:11;36.00;49.40
995;DHT22;486;48.726;8.964;2022-08-16T13:54:40;36.40;49.60
995;DHT22;486;48.726;8.964;2022-08-16T13:57:10;37.00;47.50
995;DHT22;486;48.726;8.964;2022-08-16T13:59:39;37.50;46.00
995;DHT22;486;48.726;8.964;2022-08-16T14:02:09;37.50;46.90
995;DHT22;486;48.726;8.964;2022-08-16T14:04:41;37.30;46.80
995;DHT22;486;48.726;8.964;2022-08-16T14:07:12;37.80;46.30
995;DHT22;486;48.726;8.964;2022-08-16T14:09:42;37.40;45.40
995;DHT22;486;48.726;8.964;2022-08-16T14:12:18;37.30;44.80
995;DHT22;486;48.726;8.964;2022-08-16T14:14:49;37.70;44.50
995;DHT22;486;48.726;8.964;2022-08-16T14:17:19;38.20;42.70
995;DHT22;486;48.726;8.964;2022-08-16T14:19:52;38.40;42.00
995;DHT22;486;48.726;8.964;2022-08-16T14:22:23;38.80;40.90
995;DHT22;486;48.726;8.964;2022-08-16T14:24:55;38.90;39.50
995;DHT22;486;48.726;8.964;2022-08-16T14:27:26;37.90;40.60
995;DHT22;486;48.726;8.964;2022-08-16T14:29:57;36.90;41.50
995;DHT22;486;48.726;8.964;2022-08-16T14:32:28;36.30;41.60
995;DHT22;486;48.726;8.964;2022-08-16T14:35:03;35.90;41.20
995;DHT22;486;48.726;8.964;2022-08-16T14:37:34;36.30;43.00
995;DHT22;486;48.726;8.964;2022-08-16T14:40:05;37.40;40.50
995;DHT22;486;48.726;8.964;2022-08-16T14:42:37;37.80;39.60
995;DHT22;486;48.726;8.964;2022-08-16T14:45:09;38.10;39.50
995;DHT22;486;48.726;8.964;2022-08-16T14:47:39;37.90;41.10
995;DHT22;486;48.726;8.964;2022-08-16T14:50:13;38.10;40.40
995;DHT22;486;48.726;8.964;2022-08-16T14:52:46;38.80;38.50
995;DHT22;486;48.726;8.964;2022-08-16T14:55:17;39.00;38.70
995;DHT22;486;48.726;8.964;2022-08-16T14:57:46;39.70;38.00
995;DHT22;486;48.726;8.964;2022-08-16T15:00:15;39.70;38.60
995;DHT22;486;48.726;8.964;2022-08-16T15:02:49;39.80;36.30
995;DHT22;486;48.726;8.964;2022-08-16T15:05:24;39.40;36.40
995;DHT22;486;48.726;8.964;2022-08-16T15:07:55;39.30;37.30
995;DHT22;486;48.726;8.964;2022-08-16T15:10:24;39.40;34.40
995;DHT22;486;48.726;8.964;2022-08-16T15:12:53;38.60;38.00
995;DHT22;486;48.726;8.964;2022-08-16T15:15:24;38.70;38.20
995;DHT22;486;48.726;8.964;2022-08-16T15:17:54;39.30;38.10
995;DHT22;486;48.726;8.964;2022-08-16T15:20:29;39.80;36.30
995;DHT22;486;48.726;8.964;2022-08-16T15:23:02;40.50;35.20
995;DHT22;486;48.726;8.964;2022-08-16T15:25:35;40.80;35.10
995;DHT22;486;48.726;8.964;2022-08-16T15:28:07;40.60;33.90
995;DHT22;486;48.726;8.964;2022-08-16T15:30:38;40.80;34.20
995;DHT22;486;48.726;8.964;2022-08-16T15:33:10;41.40;33.10
995;DHT22;486;48.726;8.964;2022-08-16T15:35:44;41.30;33.40
995;DHT22;486;48.726;8.964;2022-08-16T15:38:15;40.80;32.80
995;DHT22;486;48.726;8.964;2022-08-16T15:40:44;40.90;35.40
995;DHT22;486;48.726;8.964;2022-08-16T15:43:13;40.80;31.20
995;DHT22;486;48.726;8.964;2022-08-16T15:45:42;40.50;32.80
995;DHT22;486;48.726;8.964;2022-08-16T15:48:23;39.70;34.40
995;DHT22;486;48.726;8.964;2022-08-16T15:50:59;38.70;34.90
995;DHT22;486;48.726;8.964;2022-08-16T15:53:33;38.10;36.60
995;DHT22;486;48.726;8.964;2022-08-16T15:56:03;38.10;35.80
995;DHT22;486;48.726;8.964;2022-08-16T15:58:33;37.80;36.00
995;DHT22;486;48.726;8.964;2022-08-16T16:01:02;36.90;37.80
995;DHT22;486;48.726;8.964;2022-08-16T16:03:31;35.40;38.70
995;DHT22;486;48.726;8.964;2022-08-16T16:06:04;34.50;40.10
995;DHT22;486;48.726;8.964;2022-08-16T16:08:34;33.70;40.80
995;DHT22;486;48.726;8.964;2022-08-16T16:11:05;33.20;42.30
995;DHT22;486;48.726;8.964;2022-08-16T16:13:34;33.30;42.80
995;DHT22;486;48.726;8.964;2022-08-16T16:16:04;33.40;42.70
995;DHT22;486;48.726;8.964;2022-08-16T16:18:35;33.00;42.80
995;DHT22;486;48.726;8.964;2022-08-16T16:21:09;32.90;43.50
995;DHT22;486;48.726;8.964;2022-08-16T16:23:42;33.60;41.80
995;DHT22;486;48.726;8.964;2022-08-16T16:26:14;33.70;43.10
995;DHT22;486;48.726;8.964;2022-08-16T16:28:44;34.50;43.50
995;DHT22;486;48.726;8.964;2022-08-16T16:31:16;35.30;42.30
995;DHT22;486;48.726;8.964;2022-08-16T16:33:48;35.90;42.30
995;DHT22;486;48.726;8.964;2022-08-16T16:36:23;36.60;41.50
995;DHT22;486;48.726;8.964;2022-08-16T16:38:53;35.90;41.80
995;DHT22;486;48.726;8.964;2022-08-16T16:41:24;35.70;42.40
995;DHT22;486;48.726;8.964;2022-08-16T16:43:55;35.60;42.50
995;DHT22;486;48.726;8.964;2022-08-16T16:46:27;36.40;42.80
995;DHT22;486;48.726;8.964;2022-08-16T16:49:03;36.80;41.00
995;DHT22;486;48.726;8.964;2022-08-16T16:51:37;36.60;41.10
995;DHT22;486;48.726;8.964;2022-08-16T16:54:08;37.00;41.40
995;DHT22;486;48.726;8.964;2022-08-16T16:56:37;36.80;40.70
995;DHT22;486;48.726;8.964;2022-08-16T16:59:08;34.50;43.30
995;DHT22;486;48.726;8.964;2022-08-16T17:01:37;34.40;43.80